sensor_id;sensor_type;location;lat;lon;timestamp;pressure;altitude;pressure_sealevel;temperature;humidity
60170;BME280;46042;49.444;6.862;2023-05-03T00:02:01;99580.16;;;6.58;81.74
60170;BME280;46042;49.444;6.862;2023-05-03T00:04:29;99582.91;;;6.53;83.11
60170;BME280;46042;49.444;6.862;2023-05-03T00:06:57;99580.63;;;6.44;84.41
60170;BME280;46042;49.444;6.862;2023-05-03T00:09:23;99577.94;;;6.46;85.06
60170;BME280;46042;49.444;6.862;2023-05-03T00:11:50;99572.22;;;6.34;86.03
60170;BME280;46042;49.444;6.862;2023-05-03T00:14:17;99569.78;;;6.28;84.88
60170;BME280;46042;49.444;6.862;2023-05-03T00:16:44;99555.75;;;6.31;85.40
60170;BME280;46042;49.444;6.862;2023-05-03T00:19:11;99560.25;;;6.27;85.95
60170;BME280;46042;49.444;6.862;2023-05-03T00:21:56;99556.06;;;6.21;85.39
60170;BME280;46042;49.444;6.862;2023-05-03T00:24:22;99553.66;;;6.15;85.85
60170;BME280;46042;49.444;6.862;2023-05-03T00:26:49;99558.19;;;6.10;85.31
60170;BME280;46042;49.444;6.862;2023-05-03T00:29:15;99555.66;;;6.07;85.81
60170;BME280;46042;49.444;6.862;2023-05-03T00:31:44;99553.09;;;6.05;85.85
60170;BME280;46042;49.444;6.862;2023-05-03T00:34:10;99554.13;;;6.01;85.33
60170;BME280;46042;49.444;6.862;2023-05-03T00:36:37;99548.19;;;5.94;86.04
60170;BME280;46042;49.444;6.862;2023-05-03T00:39:04;99556.94;;;5.93;86.31
60170;BME280;46042;49.444;6.862;2023-05-03T00:41:30;99552.63;;;5.92;86.34
60170;BME280;46042;49.444;6.862;2023-05-03T00:43:57;99549.13;;;5.92;86.38
60170;BME280;46042;49.444;6.862;2023-05-03T00:46:24;99551.78;;;5.90;86.51
60170;BME280;46042;49.444;6.862;2023-05-03T00:48:51;99551.97;;;5.86;87.15
60170;BME280;46042;49.444;6.862;2023-05-03T00:51:18;99545.72;;;5.90;86.74
60170;BME280;46042;49.444;6.862;2023-05-03T00:53:46;99544.91;;;5.88;87.24
60170;BME280;46042;49.444;6.862;2023-05-03T00:56:18;99539.00;;;5.82;87.25
60170;BME280;46042;49.444;6.862;2023-05-03T00:58:47;99533.75;;;5.82;87.97
60170;BME280;46042;49.444;6.862;2023-05-03T01:01:14;99534.69;;;5.80;87.27
60170;BME280;46042;49.444;6.862;2023-05-03T01:03:41;99532.22;;;5.75;88.34
60170;BME280;46042;49.444;6.862;2023-05-03T01:06:32;99543.50;;;5.77;87.43
60170;BME280;46042;49.444;6.862;2023-05-03T01:09:10;99541.75;;;5.78;87.67
60170;BME280;46042;49.444;6.862;2023-05-03T01:14:34;99538.31;;;5.76;86.94
60170;BME280;46042;49.444;6.862;2023-05-03T01:17:08;99535.66;;;5.77;87.02
60170;BME280;46042;49.444;6.862;2023-05-03T01:19:43;99535.88;;;5.69;86.72
60170;BME280;46042;49.444;6.862;2023-05-03T01:24:50;99523.78;;;5.67;86.83
60170;BME280;46042;49.444;6.862;2023-05-03T01:27:20;99529.25;;;5.59;87.93
60170;BME280;46042;49.444;6.862;2023-05-03T01:29:49;99539.72;;;5.59;87.26
60170;BME280;46042;49.444;6.862;2023-05-03T01:32:22;99538.16;;;5.52;88.70
60170;BME280;46042;49.444;6.862;2023-05-03T01:35:17;99533.19;;;5.44;89.25
60170;BME280;46042;49.444;6.862;2023-05-03T01:37:47;99530.75;;;5.38;89.39
60170;BME280;46042;49.444;6.862;2023-05-03T01:40:16;99530.78;;;5.36;90.20
60170;BME280;46042;49.444;6.862;2023-05-03T01:42:45;99528.97;;;5.40;89.36
60170;BME280;46042;49.444;6.862;2023-05-03T01:45:13;99527.13;;;5.44;89.33
60170;BME280;46042;49.444;6.862;2023-05-03T01:47:41;99523.81;;;5.37;89.87
60170;BME280;46042;49.444;6.862;2023-05-03T01:50:08;99531.66;;;5.37;89.55
60170;BME280;46042;49.444;6.862;2023-05-03T01:52:35;99533.34;;;5.39;88.84
60170;BME280;46042;49.444;6.862;2023-05-03T01:55:02;99537.78;;;5.36;89.04
60170;BME280;46042;49.444;6.862;2023-05-03T01:57:29;99546.56;;;5.33;89.32
60170;BME280;46042;49.444;6.862;2023-05-03T01:59:56;99545.75;;;5.31;89.51
60170;BME280;46042;49.444;6.862;2023-05-03T02:02:22;99537.13;;;5.29;89.66
60170;BME280;46042;49.444;6.862;2023-05-03T02:04:49;99541.78;;;5.18;89.60
60170;BME280;46042;49.444;6.862;2023-05-03T02:07:16;99545.28;;;5.18;90.19
60170;BME280;46042;49.444;6.862;2023-05-03T02:09:42;99545.31;;;5.17;91.58
60170;BME280;46042;49.444;6.862;2023-05-03T02:12:09;99545.41;;;5.13;91.08
60170;BME280;46042;49.444;6.862;2023-05-03T02:14:36;99536.66;;;5.15;90.12
60170;BME280;46042;49.444;6.862;2023-05-03T02:17:05;99539.38;;;5.11;91.56
60170;BME280;46042;49.444;6.862;2023-05-03T02:19:34;99537.66;;;5.10;91.12
60170;BME280;46042;49.444;6.862;2023-05-03T02:22:01;99536.94;;;5.05;92.24
60170;BME280;46042;49.444;6.862;2023-05-03T02:24:27;99534.28;;;5.07;90.09
60170;BME280;46042;49.444;6.862;2023-05-03T02:26:55;99540.41;;;5.06;89.88
60170;BME280;46042;49.444;6.862;2023-05-03T02:29:21;99549.22;;;5.02;90.92
60170;BME280;46042;49.444;6.862;2023-05-03T02:31:48;99541.44;;;5.00;92.28
60170;BME280;46042;49.444;6.862;2023-05-03T02:34:14;99538.06;;;4.96;93.13
60170;BME280;46042;49.444;6.862;2023-05-03T02:36:41;99541.56;;;4.95;92.28
60170;BME280;46042;49.444;6.862;2023-05-03T02:39:08;99534.72;;;4.91;92.41
60170;BME280;46042;49.444;6.862;2023-05-03T02:41:35;99538.13;;;4.93;92.19
60170;BME280;46042;49.444;6.862;2023-05-03T02:44:02;99533.06;;;4.89;92.30
60170;BME280;46042;49.444;6.862;2023-05-03T02:46:29;99540.84;;;4.90;90.92
60170;BME280;46042;49.444;6.862;2023-05-03T02:48:56;99540.06;;;4.87;91.16
60170;BME280;46042;49.444;6.862;2023-05-03T02:51:23;99531.47;;;4.83;91.46
60170;BME280;46042;49.444;6.862;2023-05-03T02:53:52;99539.41;;;4.80;92.79
60170;BME280;46042;49.444;6.862;2023-05-03T02:56:19;99536.13;;;4.72;91.67
60170;BME280;46042;49.444;6.862;2023-05-03T02:58:46;99541.34;;;4.72;93.04
60170;BME280;46042;49.444;6.862;2023-05-03T03:01:13;99539.53;;;4.74;92.23
60170;BME280;46042;49.444;6.862;2023-05-03T03:03:40;99537.06;;;4.69;93.11
60170;BME280;46042;49.444;6.862;2023-05-03T03:06:06;99539.75;;;4.66;93.55
60170;BME280;46042;49.444;6.862;2023-05-03T03:08:35;99538.03;;;4.65;93.91
60170;BME280;46042;49.444;6.862;2023-05-03T03:11:03;99530.81;;;4.75;92.65
60170;BME280;46042;49.444;6.862;2023-05-03T03:13:30;99524.97;;;4.66;92.88
60170;BME280;46042;49.444;6.862;2023-05-03T03:15:57;99528.47;;;4.65;93.49
60170;BME280;46042;49.444;6.862;2023-05-03T03:18:24;99526.72;;;4.66;92.83
60170;BME280;46042;49.444;6.862;2023-05-03T03:20:50;99533.72;;;4.64;93.83
60170;BME280;46042;49.444;6.862;2023-05-03T03:23:17;99525.91;;;4.64;93.54
60170;BME280;46042;49.444;6.862;2023-05-03T03:25:44;99526.06;;;4.58;94.35
60170;BME280;46042;49.444;6.862;2023-05-03T03:28:12;99525.91;;;4.64;93.18
60170;BME280;46042;49.444;6.862;2023-05-03T03:30:38;99533.78;;;4.62;92.44
60170;BME280;46042;49.444;6.862;2023-05-03T03:33:06;99529.38;;;4.64;92.86
60170;BME280;46042;49.444;6.862;2023-05-03T03:35:33;99526.06;;;4.58;93.18
60170;BME280;46042;49.444;6.862;2023-05-03T03:38:00;99525.19;;;4.59;93.42
60170;BME280;46042;49.444;6.862;2023-05-03T03:40:26;99525.13;;;4.60;92.34
60170;BME280;46042;49.444;6.862;2023-05-03T03:42:53;99532.03;;;4.61;92.04
60170;BME280;46042;49.444;6.862;2023-05-03T03:45:20;99523.41;;;4.59;91.13
60170;BME280;46042;49.444;6.862;2023-05-03T03:47:46;99520.06;;;4.54;91.15
60170;BME280;46042;49.444;6.862;2023-05-03T03:50:13;99518.38;;;4.51;92.16
60170;BME280;46042;49.444;6.862;2023-05-03T03:52:40;99517.56;;;4.51;91.84
60170;BME280;46042;49.444;6.862;2023-05-03T03:55:07;99516.84;;;4.44;91.93
60170;BME280;46042;49.444;6.862;2023-05-03T03:57:33;99526.47;;;4.42;93.14
60170;BME280;46042;49.444;6.862;2023-05-03T04:00:00;99520.44;;;4.40;92.05
60170;BME280;46042;49.444;6.862;2023-05-03T04:02:37;99526.59;;;4.37;92.94
60170;BME280;46042;49.444;6.862;2023-05-03T04:05:04;99523.28;;;4.31;93.81
60170;BME280;46042;49.444;6.862;2023-05-03T04:07:31;99517.97;;;4.35;93.21
60170;BME280;46042;49.444;6.862;2023-05-03T04:09:58;99517.97;;;4.35;93.10
60170;BME280;46042;49.444;6.862;2023-05-03T04:12:25;99522.19;;;4.39;92.83
60170;BME280;46042;49.444;6.862;2023-05-03T04:14:51;99516.28;;;4.33;93.63
60170;BME280;46042;49.444;6.862;2023-05-03T04:17:18;99525.97;;;4.27;95.34
60170;BME280;46042;49.444;6.862;2023-05-03T04:19:45;99519.78;;;4.32;94.12
60170;BME280;46042;49.444;6.862;2023-05-03T04:22:12;99509.41;;;4.30;94.43
60170;BME280;46042;49.444;6.862;2023-05-03T04:24:39;99512.75;;;4.35;94.20
60170;BME280;46042;49.444;6.862;2023-05-03T04:27:06;99511.84;;;4.36;94.57
60170;BME280;46042;49.444;6.862;2023-05-03T04:29:34;99505.72;;;4.37;94.29
60170;BME280;46042;49.444;6.862;2023-05-03T04:32:02;99502.28;;;4.37;93.75
60170;BME280;46042;49.444;6.862;2023-05-03T04:34:29;99500.69;;;4.31;95.21
60170;BME280;46042;49.444;6.862;2023-05-03T04:36:56;99505.72;;;4.37;95.24
60170;BME280;46042;49.444;6.862;2023-05-03T04:39:23;99507.41;;;4.40;94.77
60170;BME280;46042;49.444;6.862;2023-05-03T04:41:50;99503.00;;;4.42;93.51
60170;BME280;46042;49.444;6.862;2023-05-03T04:44:17;99503.91;;;4.41;95.07
60170;BME280;46042;49.444;6.862;2023-05-03T04:46:45;99507.19;;;4.48;94.10
60170;BME280;46042;49.444;6.862;2023-05-03T04:49:14;99508.09;;;4.47;94.09
60170;BME280;46042;49.444;6.862;2023-05-03T04:51:43;99505.44;;;4.48;94.10
60170;BME280;46042;49.444;6.862;2023-05-03T04:54:09;99505.44;;;4.48;94.71
60170;BME280;46042;49.444;6.862;2023-05-03T04:56:36;99493.94;;;4.55;94.41
60170;BME280;46042;49.444;6.862;2023-05-03T04:59:02;99488.72;;;4.55;94.47
60170;BME280;46042;49.444;6.862;2023-05-03T05:01:32;99492.97;;;4.60;94.65
60170;BME280;46042;49.444;6.862;2023-05-03T05:03:58;99489.47;;;4.59;96.55
60170;BME280;46042;49.444;6.862;2023-05-03T05:06:25;99490.16;;;4.66;95.19
60170;BME280;46042;49.444;6.862;2023-05-03T05:08:52;99492.53;;;4.75;95.03
60170;BME280;46042;49.444;6.862;2023-05-03T05:11:20;99492.34;;;4.81;94.80
60170;BME280;46042;49.444;6.862;2023-05-03T05:13:47;99493.13;;;4.85;94.60
60170;BME280;46042;49.444;6.862;2023-05-03T05:16:14;99492.22;;;4.86;94.98
60170;BME280;46042;49.444;6.862;2023-05-03T05:18:41;99494.75;;;4.89;96.14
60170;BME280;46042;49.444;6.862;2023-05-03T05:21:07;99501.66;;;4.90;96.11
60170;BME280;46042;49.444;6.862;2023-05-03T05:23:34;99499.75;;;4.97;95.53
60170;BME280;46042;49.444;6.862;2023-05-03T05:26:01;99505.66;;;5.04;95.24
60170;BME280;46042;49.444;6.862;2023-05-03T05:28:28;99512.31;;;5.14;95.10
60170;BME280;46042;49.444;6.862;2023-05-03T05:30:55;99511.91;;;5.28;95.31
60170;BME280;46042;49.444;6.862;2023-05-03T05:33:21;99528.91;;;5.41;94.83
60170;BME280;46042;49.444;6.862;2023-05-03T05:35:48;99524.16;;;5.54;93.30
60170;BME280;46042;49.444;6.862;2023-05-03T05:38:15;99535.88;;;5.69;95.37
60170;BME280;46042;49.444;6.862;2023-05-03T05:40:43;99539.78;;;5.84;93.06
60170;BME280;46042;49.444;6.862;2023-05-03T05:43:09;99540.03;;;6.05;94.67
60170;BME280;46042;49.444;6.862;2023-05-03T05:45:37;99543.09;;;6.18;92.38
60170;BME280;46042;49.444;6.862;2023-05-03T05:48:03;99542.88;;;6.50;95.23
60170;BME280;46042;49.444;6.862;2023-05-03T05:50:31;99551.88;;;6.68;90.66
60170;BME280;46042;49.444;6.862;2023-05-03T05:52:58;99548.44;;;6.91;90.24
60170;BME280;46042;49.444;6.862;2023-05-03T05:55:24;99550.91;;;6.96;86.20
60170;BME280;46042;49.444;6.862;2023-05-03T05:57:51;99543.56;;;7.06;83.35
60170;BME280;46042;49.444;6.862;2023-05-03T06:00:18;99544.09;;;7.14;81.10
60170;BME280;46042;49.444;6.862;2023-05-03T06:02:44;99543.63;;;7.28;85.01
60170;BME280;46042;49.444;6.862;2023-05-03T06:05:12;99531.91;;;7.37;84.38
60170;BME280;46042;49.444;6.862;2023-05-03T06:07:39;99537.00;;;7.64;80.96
60170;BME280;46042;49.444;6.862;2023-05-03T06:10:06;99540.84;;;7.77;82.01
60170;BME280;46042;49.444;6.862;2023-05-03T06:12:33;99538.53;;;7.92;81.40
60170;BME280;46042;49.444;6.862;2023-05-03T06:14:59;99532.72;;;7.83;77.74
60170;BME280;46042;49.444;6.862;2023-05-03T06:17:28;99536.97;;;8.08;79.86
60170;BME280;46042;49.444;6.862;2023-05-03T06:19:57;99535.69;;;8.39;78.75
60170;BME280;46042;49.444;6.862;2023-05-03T06:22:24;99547.63;;;8.47;76.14
60170;BME280;46042;49.444;6.862;2023-05-03T06:24:51;99548.56;;;8.66;75.49
60170;BME280;46042;49.444;6.862;2023-05-03T06:27:18;99551.66;;;8.76;72.22
60170;BME280;46042;49.444;6.862;2023-05-03T06:29:45;99546.34;;;8.97;80.52
60170;BME280;46042;49.444;6.862;2023-05-03T06:32:12;99544.78;;;8.93;72.33
60170;BME280;46042;49.444;6.862;2023-05-03T06:34:39;99543.56;;;9.21;70.92
60170;BME280;46042;49.444;6.862;2023-05-03T06:37:05;99545.09;;;9.63;75.66
60170;BME280;46042;49.444;6.862;2023-05-03T06:39:32;99553.56;;;10.07;75.99
60170;BME280;46042;49.444;6.862;2023-05-03T06:41:59;99552.97;;;10.37;72.27
60170;BME280;46042;49.444;6.862;2023-05-03T06:44:26;99557.16;;;10.59;72.66
60170;BME280;46042;49.444;6.862;2023-05-03T06:46:55;99560.78;;;10.38;64.25
60170;BME280;46042;49.444;6.862;2023-05-03T06:49:22;99551.19;;;10.55;70.14
60170;BME280;46042;49.444;6.862;2023-05-03T06:51:50;99545.25;;;10.85;70.25
60170;BME280;46042;49.444;6.862;2023-05-03T06:54:17;99546.59;;;10.76;63.83
60170;BME280;46042;49.444;6.862;2023-05-03T06:56:45;99547.91;;;10.85;66.58
60170;BME280;46042;49.444;6.862;2023-05-03T06:59:12;99544.47;;;11.17;70.97
60170;BME280;46042;49.444;6.862;2023-05-03T07:01:39;99545.63;;;11.45;63.81
60170;BME280;46042;49.444;6.862;2023-05-03T07:04:06;99534.22;;;11.60;65.96
60170;BME280;46042;49.444;6.862;2023-05-03T07:06:33;99547.56;;;12.05;63.08
60170;BME280;46042;49.444;6.862;2023-05-03T07:09:20;99542.38;;;12.34;69.15
60170;BME280;46042;49.444;6.862;2023-05-03T07:12:01;99538.88;;;12.34;63.51
60170;BME280;46042;49.444;6.862;2023-05-03T07:14:30;99535.72;;;12.87;67.50
60170;BME280;46042;49.444;6.862;2023-05-03T07:16:57;99532.06;;;13.04;62.65
60170;BME280;46042;49.444;6.862;2023-05-03T07:19:23;99534.50;;;13.21;60.67
60170;BME280;46042;49.444;6.862;2023-05-03T07:21:50;99539.19;;;13.87;66.50
60170;BME280;46042;49.444;6.862;2023-05-03T07:24:17;99536.00;;;14.10;59.24
60170;BME280;46042;49.444;6.862;2023-05-03T07:26:44;99535.13;;;14.09;56.92
60170;BME280;46042;49.444;6.862;2023-05-03T07:29:15;99526.47;;;14.20;60.76
60170;BME280;46042;49.444;6.862;2023-05-03T07:31:43;99523.84;;;14.33;56.42
60170;BME280;46042;49.444;6.862;2023-05-03T07:34:10;99526.22;;;13.70;54.29
60170;BME280;46042;49.444;6.862;2023-05-03T07:36:38;99520.47;;;14.31;60.31
60170;BME280;46042;49.444;6.862;2023-05-03T07:39:05;99526.81;;;14.54;56.80
60170;BME280;46042;49.444;6.862;2023-05-03T07:41:31;99524.28;;;14.65;55.73
60170;BME280;46042;49.444;6.862;2023-05-03T07:43:58;99528.31;;;13.92;53.23
60170;BME280;46042;49.444;6.862;2023-05-03T07:46:25;99531.84;;;14.72;58.31
60170;BME280;46042;49.444;6.862;2023-05-03T07:48:51;99526.22;;;14.63;51.21
60170;BME280;46042;49.444;6.862;2023-05-03T07:51:18;99522.53;;;14.13;56.69
60170;BME280;46042;49.444;6.862;2023-05-03T07:53:45;99514.00;;;14.48;59.27
60170;BME280;46042;49.444;6.862;2023-05-03T07:56:11;99519.34;;;14.74;51.33
60170;BME280;46042;49.444;6.862;2023-05-03T07:58:38;99512.91;;;14.25;52.62
60170;BME280;46042;49.444;6.862;2023-05-03T08:01:08;99514.56;;;14.66;57.89
60170;BME280;46042;49.444;6.862;2023-05-03T08:03:35;99508.72;;;15.00;55.32
60170;BME280;46042;49.444;6.862;2023-05-03T08:06:02;99505.97;;;15.01;54.46
60170;BME280;46042;49.444;6.862;2023-05-03T08:08:29;99507.28;;;15.57;60.00
60170;BME280;46042;49.444;6.862;2023-05-03T08:10:57;99504.53;;;16.66;55.56
60170;BME280;46042;49.444;6.862;2023-05-03T08:13:24;99505.00;;;16.01;50.38
60170;BME280;46042;49.444;6.862;2023-05-03T08:15:51;99500.75;;;15.99;56.92
60170;BME280;46042;49.444;6.862;2023-05-03T08:18:19;99498.81;;;16.37;51.58
60170;BME280;46042;49.444;6.862;2023-05-03T08:20:49;99501.28;;;16.15;49.87
60170;BME280;46042;49.444;6.862;2023-05-03T08:23:16;99497.63;;;15.81;50.23
60170;BME280;46042;49.444;6.862;2023-05-03T08:25:43;99492.41;;;15.68;50.33
60170;BME280;46042;49.444;6.862;2023-05-03T08:28:10;99499.09;;;16.45;56.90
60170;BME280;46042;49.444;6.862;2023-05-03T08:30:37;99495.63;;;16.20;53.89
60170;BME280;46042;49.444;6.862;2023-05-03T08:33:04;99497.34;;;15.72;50.61
60170;BME280;46042;49.444;6.862;2023-05-03T08:35:33;99499.94;;;14.99;52.06
60170;BME280;46042;49.444;6.862;2023-05-03T08:38:00;99500.97;;;14.45;53.22
60170;BME280;46042;49.444;6.862;2023-05-03T08:40:27;99490.69;;;15.42;55.02
60170;BME280;46042;49.444;6.862;2023-05-03T08:42:55;99491.25;;;15.59;50.49
60170;BME280;46042;49.444;6.862;2023-05-03T08:45:26;99496.50;;;16.20;54.33
60170;BME280;46042;49.444;6.862;2023-05-03T08:47:55;99505.41;;;16.67;52.44
60170;BME280;46042;49.444;6.862;2023-05-03T08:50:22;99493.06;;;16.88;53.18
60170;BME280;46042;49.444;6.862;2023-05-03T08:52:49;99497.06;;;17.28;56.54
60170;BME280;46042;49.444;6.862;2023-05-03T08:55:16;99491.31;;;17.56;50.40
60170;BME280;46042;49.444;6.862;2023-05-03T08:57:43;99485.94;;;18.32;50.93
60170;BME280;46042;49.444;6.862;2023-05-03T09:00:12;99480.47;;;17.47;46.84
60170;BME280;46042;49.444;6.862;2023-05-03T09:02:40;99478.19;;;18.51;55.22
60170;BME280;46042;49.444;6.862;2023-05-03T09:07:59;99477.66;;;19.19;48.33
60170;BME280;46042;49.444;6.862;2023-05-03T09:10:31;99469.56;;;19.80;56.21
60170;BME280;46042;49.444;6.862;2023-05-03T09:12:59;99474.22;;;19.48;51.90
60170;BME280;46042;49.444;6.862;2023-05-03T09:15:29;99475.63;;;19.72;44.88
60170;BME280;46042;49.444;6.862;2023-05-03T09:18:18;99478.00;;;19.65;43.61
60170;BME280;46042;49.444;6.862;2023-05-03T09:20:46;99475.25;;;19.16;46.67
60170;BME280;46042;49.444;6.862;2023-05-03T09:25:58;99477.53;;;18.58;45.54
60170;BME280;46042;49.444;6.862;2023-05-03T09:28:26;99479.38;;;19.40;45.67
60170;BME280;46042;49.444;6.862;2023-05-03T09:31:05;99459.75;;;18.69;46.76
60170;BME280;46042;49.444;6.862;2023-05-03T09:33:32;99468.09;;;18.54;46.47
60170;BME280;46042;49.444;6.862;2023-05-03T09:36:02;99462.63;;;18.87;47.70
60170;BME280;46042;49.444;6.862;2023-05-03T09:38:33;99465.03;;;19.51;47.80
60170;BME280;46042;49.444;6.862;2023-05-03T09:41:04;99462.53;;;18.98;44.29
60170;BME280;46042;49.444;6.862;2023-05-03T09:43:34;99472.13;;;18.48;48.17
60170;BME280;46042;49.444;6.862;2023-05-03T09:46:11;99466.03;;;18.58;45.58
60170;BME280;46042;49.444;6.862;2023-05-03T09:48:38;99457.38;;;18.75;45.75
60170;BME280;46042;49.444;6.862;2023-05-03T09:51:06;99459.13;;;18.86;44.88
60170;BME280;46042;49.444;6.862;2023-05-03T09:53:36;99459.75;;;18.69;43.90
60170;BME280;46042;49.444;6.862;2023-05-03T09:56:07;99456.19;;;19.40;44.44
60170;BME280;46042;49.444;6.862;2023-05-03T09:58:39;99461.00;;;19.66;45.86
60170;BME280;46042;49.444;6.862;2023-05-03T10:01:10;99467.00;;;18.98;42.65
60170;BME280;46042;49.444;6.862;2023-05-03T10:03:47;99457.78;;;18.71;44.92
60170;BME280;46042;49.444;6.862;2023-05-03T10:06:33;99453.25;;;19.53;51.22
60170;BME280;46042;49.444;6.862;2023-05-03T10:09:39;99445.81;;;20.06;50.66
60170;BME280;46042;49.444;6.862;2023-05-03T10:11:59;99448.22;;;19.99;43.29
60170;BME280;46042;49.444;6.862;2023-05-03T10:14:30;99453.66;;;19.39;43.62
60170;BME280;46042;49.444;6.862;2023-05-03T10:17:06;99449.97;;;19.30;44.91
60170;BME280;46042;49.444;6.862;2023-05-03T10:19:49;99452.25;;;19.35;43.91
60170;BME280;46042;49.444;6.862;2023-05-03T10:22:17;99449.78;;;18.71;43.44
60170;BME280;46042;49.444;6.862;2023-05-03T10:27:23;99449.28;;;18.97;43.21
60170;BME280;46042;49.444;6.862;2023-05-03T10:29:50;99434.78;;;18.48;46.79
60170;BME280;46042;49.444;6.862;2023-05-03T10:32:34;99441.31;;;18.34;43.72
60170;BME280;46042;49.444;6.862;2023-05-03T10:35:12;99436.75;;;18.04;47.50
60170;BME280;46042;49.444;6.862;2023-05-03T10:37:42;99436.69;;;18.37;44.86
60170;BME280;46042;49.444;6.862;2023-05-03T10:40:12;99429.53;;;18.99;50.74
60170;BME280;46042;49.444;6.862;2023-05-03T10:43:04;99423.81;;;19.14;42.33
60170;BME280;46042;49.444;6.862;2023-05-03T10:45:30;99427.66;;;19.90;49.24
60170;BME280;46042;49.444;6.862;2023-05-03T10:50:40;99421.44;;;20.19;39.56
60170;BME280;46042;49.444;6.862;2023-05-03T10:53:07;99419.91;;;19.77;41.10
60170;BME280;46042;49.444;6.862;2023-05-03T10:56:00;99420.75;;;19.38;44.78
60170;BME280;46042;49.444;6.862;2023-05-03T10:58:45;99418.31;;;20.71;55.63
60170;BME280;46042;49.444;6.862;2023-05-03T11:01:16;99422.38;;;20.38;43.85
60170;BME280;46042;49.444;6.862;2023-05-03T11:06:33;99422.31;;;19.60;42.54
60170;BME280;46042;49.444;6.862;2023-05-03T11:09:04;99411.34;;;19.83;40.09
60170;BME280;46042;49.444;6.862;2023-05-03T11:11:36;99405.84;;;19.36;40.93
60170;BME280;46042;49.444;6.862;2023-05-03T11:14:05;99396.72;;;19.28;39.70
60170;BME280;46042;49.444;6.862;2023-05-03T11:16:38;99393.75;;;19.51;42.44
60170;BME280;46042;49.444;6.862;2023-05-03T11:19:13;99388.97;;;19.65;44.72
60170;BME280;46042;49.444;6.862;2023-05-03T11:21:45;99389.66;;;19.76;40.66
60170;BME280;46042;49.444;6.862;2023-05-03T11:24:13;99385.03;;;19.79;42.04
60170;BME280;46042;49.444;6.862;2023-05-03T11:26:41;99381.34;;;19.80;42.53
60170;BME280;46042;49.444;6.862;2023-05-03T11:29:13;99386.69;;;19.99;38.86
60170;BME280;46042;49.444;6.862;2023-05-03T11:31:41;99386.53;;;20.11;39.84
60170;BME280;46042;49.444;6.862;2023-05-03T11:34:12;99385.41;;;20.23;41.58
60170;BME280;46042;49.444;6.862;2023-05-03T11:36:40;99376.41;;;20.52;35.64
60170;BME280;46042;49.444;6.862;2023-05-03T11:39:07;99384.03;;;19.80;38.97
60170;BME280;46042;49.444;6.862;2023-05-03T11:41:35;99380.97;;;19.65;38.22
60170;BME280;46042;49.444;6.862;2023-05-03T11:44:02;99384.19;;;19.98;40.46
60170;BME280;46042;49.444;6.862;2023-05-03T11:46:44;99382.91;;;20.78;38.53
60170;BME280;46042;49.444;6.862;2023-05-03T11:49:16;99375.34;;;20.35;37.12
60170;BME280;46042;49.444;6.862;2023-05-03T11:51:46;99380.59;;;20.17;37.87
60170;BME280;46042;49.444;6.862;2023-05-03T11:54:20;99387.03;;;19.47;33.48
60170;BME280;46042;49.444;6.862;2023-05-03T11:56:56;99379.28;;;19.64;36.97
60170;BME280;46042;49.444;6.862;2023-05-03T11:59:33;99377.88;;;20.37;36.56
60170;BME280;46042;49.444;6.862;2023-05-03T12:02:01;99373.31;;;20.47;33.15
60170;BME280;46042;49.444;6.862;2023-05-03T12:04:30;99366.28;;;20.84;34.67
60170;BME280;46042;49.444;6.862;2023-05-03T12:06:57;99370.16;;;20.61;32.76
60170;BME280;46042;49.444;6.862;2023-05-03T12:09:28;99374.25;;;20.94;34.78
60170;BME280;46042;49.444;6.862;2023-05-03T12:11:59;99369.09;;;20.44;33.16
60170;BME280;46042;49.444;6.862;2023-05-03T12:14:58;99366.13;;;20.57;34.34
60170;BME280;46042;49.444;6.862;2023-05-03T12:17:39;99363.22;;;20.69;36.37
60170;BME280;46042;49.444;6.862;2023-05-03T12:20:28;99355.50;;;20.66;33.39
60170;BME280;46042;49.444;6.862;2023-05-03T12:23:18;99354.50;;;20.67;32.91
60170;BME280;46042;49.444;6.862;2023-05-03T12:25:47;99354.91;;;20.44;32.94
60170;BME280;46042;49.444;6.862;2023-05-03T12:28:16;99355.06;;;20.98;31.31
60170;BME280;46042;49.444;6.862;2023-05-03T12:30:46;99345.88;;;20.83;35.95
60170;BME280;46042;49.444;6.862;2023-05-03T12:33:15;99355.06;;;21.16;31.51
60170;BME280;46042;49.444;6.862;2023-05-03T12:35:42;99343.00;;;20.84;31.69
60170;BME280;46042;49.444;6.862;2023-05-03T12:38:13;99337.34;;;20.87;32.53
60170;BME280;46042;49.444;6.862;2023-05-03T12:40:43;99337.47;;;20.96;29.13
60170;BME280;46042;49.444;6.862;2023-05-03T12:43:13;99334.19;;;21.20;33.60
60170;BME280;46042;49.444;6.862;2023-05-03T12:45:40;99337.94;;;20.25;27.12
60170;BME280;46042;49.444;6.862;2023-05-03T12:48:12;99336.38;;;20.23;29.46
60170;BME280;46042;49.444;6.862;2023-05-03T12:50:39;99328.34;;;21.43;35.51
60170;BME280;46042;49.444;6.862;2023-05-03T12:53:11;99326.28;;;21.00;30.21
60170;BME280;46042;49.444;6.862;2023-05-03T12:55:42;99328.44;;;20.97;29.08
60170;BME280;46042;49.444;6.862;2023-05-03T12:58:14;99326.84;;;21.40;29.24
60170;BME280;46042;49.444;6.862;2023-05-03T13:00:46;99324.63;;;20.99;30.41
60170;BME280;46042;49.444;6.862;2023-05-03T13:03:32;99315.75;;;21.17;30.87
60170;BME280;46042;49.444;6.862;2023-05-03T13:06:09;99310.84;;;20.66;31.60
60170;BME280;46042;49.444;6.862;2023-05-03T13:08:41;99302.78;;;21.12;30.23
60170;BME280;46042;49.444;6.862;2023-05-03T13:11:13;99302.13;;;21.73;32.05
60170;BME280;46042;49.444;6.862;2023-05-03T13:13:40;99302.69;;;21.85;30.22
60170;BME280;46042;49.444;6.862;2023-05-03T13:16:07;99304.06;;;21.44;30.11
60170;BME280;46042;49.444;6.862;2023-05-03T13:18:34;99286.81;;;21.92;33.08
60170;BME280;46042;49.444;6.862;2023-05-03T13:21:01;99298.59;;;21.72;32.31
60170;BME280;46042;49.444;6.862;2023-05-03T13:23:27;99284.22;;;21.55;27.85
60170;BME280;46042;49.444;6.862;2023-05-03T13:25:54;99285.91;;;21.74;32.13
60170;BME280;46042;49.444;6.862;2023-05-03T13:28:24;99274.16;;;22.02;31.26
60170;BME280;46042;49.444;6.862;2023-05-03T13:30:53;99281.91;;;21.60;30.48
60170;BME280;46042;49.444;6.862;2023-05-03T13:33:19;99273.94;;;21.06;31.90
60170;BME280;46042;49.444;6.862;2023-05-03T13:35:46;99268.84;;;21.39;29.86